Time;durP1;ratioP1;P1;durP2;ratioP2;P2;SDS_P1;SDS_P2;PMS_P1;PMS_P2;Temp;Humidity;BMP_temperature;BMP_pressure;BME280_temperature;BME280_humidity;BME280_pressure;Samples;Min_cycle;Max_cycle;Signal;HPM_P1;HPM_P2
2023/09/25 00:00:30;;;;;;;7.33;5.10;;;;;;;;;;5076181;28;20468;-79
2023/09/25 00:02:57;;;;;;;7.43;6.03;;;;;;;;;;5083962;28;20470;-80
2023/09/25 00:05:25;;;;;;;8.00;5.97;;;;;;;;;;5092668;28;20936;-80
2023/09/25 00:07:52;;;;;;;8.67;5.90;;;;;;;;;;5087523;28;20490;-80
2023/09/25 00:10:19;;;;;;;9.03;5.23;;;;;;;;;;5096480;28;20481;-80
2023/09/25 00:12:47;;;;;;;6.03;5.30;;;;;;;;;;5095877;28;20937;-79
2023/09/25 00:15:15;;;;;;;7.63;6.00;;;;;;;;;;5095917;28;20451;-80
2023/09/25 00:17:42;;;;;;;6.57;5.23;;;;;;;;;;5096393;28;20542;-80
2023/09/25 00:20:11;;;;;;;8.83;5.90;;;;;;;;;;5095567;28;20894;-80
2023/09/25 00:22:39;;;;;;;9.80;5.60;;;;;;;;;;5096875;28;20927;-79
2023/09/25 00:25:07;;;;;;;7.03;6.30;;;;;;;;;;5089893;28;20820;-80
2023/09/25 00:27:34;;;;;;;10.53;6.40;;;;;;;;;;5075749;28;20446;-79
2023/09/25 00:30:06;;;;;;;7.00;6.20;;;;;;;;;;5070879;28;20477;-80
2023/09/25 00:32:34;;;;;;;8.80;6.37;;;;;;;;;;5056261;28;20540;-80
2023/09/25 00:35:01;;;;;;;12.90;6.83;;;;;;;;;;5058903;28;20514;-80
2023/09/25 00:37:29;;;;;;;7.43;6.30;;;;;;;;;;5094320;28;20459;-80
2023/09/25 00:39:57;;;;;;;11.40;6.50;;;;;;;;;;5086345;28;20467;-79
2023/09/25 00:42:24;;;;;;;8.40;6.97;;;;;;;;;;5071001;28;20463;-79
2023/09/25 00:44:51;;;;;;;8.07;6.87;;;;;;;;;;5087061;28;20439;-79
2023/09/25 00:47:20;;;;;;;8.67;6.93;;;;;;;;;;5087708;28;20462;-79
2023/09/25 00:49:47;;;;;;;7.90;7.10;;;;;;;;;;5065232;28;20509;-79
2023/09/25 00:52:14;;;;;;;7.53;6.60;;;;;;;;;;5092552;28;20444;-79
2023/09/25 00:54:42;;;;;;;8.50;6.80;;;;;;;;;;5087408;28;20948;-79
2023/09/25 00:57:09;;;;;;;9.23;7.00;;;;;;;;;;5078993;28;20444;-79
2023/09/25 00:59:37;;;;;;;8.33;6.80;;;;;;;;;;5097221;28;20446;-79
2023/09/25 01:02:06;;;;;;;9.70;7.50;;;;;;;;;;5079463;28;20447;-79
2023/09/25 01:04:34;;;;;;;10.50;8.90;;;;;;;;;;5060641;28;20945;-79
2023/09/25 01:07:01;;;;;;;9.70;8.50;;;;;;;;;;5092311;28;20941;-79
2023/09/25 01:09:28;;;;;;;13.43;7.80;;;;;;;;;;5079955;28;20487;-79
2023/09/25 01:11:56;;;;;;;10.20;7.80;;;;;;;;;;5059434;28;20480;-79
2023/09/25 01:14:23;;;;;;;11.30;8.10;;;;;;;;;;5058743;28;20453;-79
2023/09/25 01:16:50;;;;;;;13.13;7.27;;;;;;;;;;5094991;28;20904;-79
2023/09/25 01:19:18;;;;;;;7.90;7.10;;;;;;;;;;5078168;28;20447;-79
2023/09/25 01:21:47;;;;;;;11.13;8.73;;;;;;;;;;5085977;28;20468;-79
2023/09/25 01:24:14;;;;;;;10.83;7.97;;;;;;;;;;5078242;28;20499;-79
2023/09/25 01:26:41;;;;;;;11.83;7.03;;;;;;;;;;5086847;28;20453;-79
2023/09/25 01:29:08;;;;;;;11.30;7.90;;;;;;;;;;5078874;28;20487;-79
2023/09/25 01:31:36;;;;;;;10.47;7.43;;;;;;;;;;5076785;28;20471;-79
2023/09/25 01:34:03;;;;;;;10.10;7.47;;;;;;;;;;5080843;28;20863;-78
2023/09/25 01:36:30;;;;;;;11.10;8.20;;;;;;;;;;5096481;28;20449;-79
2023/09/25 01:38:58;;;;;;;8.20;6.10;;;;;;;;;;5090811;28;20453;-80
2023/09/25 01:41:25;;;;;;;10.37;8.43;;;;;;;;;;5072438;28;20481;-79
2023/09/25 01:43:53;;;;;;;8.77;7.10;;;;;;;;;;5082360;28;20457;-79
2023/09/25 01:46:20;;;;;;;10.10;8.17;;;;;;;;;;5097616;28;20448;-79
2023/09/25 01:48:49;;;;;;;15.37;7.20;;;;;;;;;;5097699;28;20933;-80
2023/09/25 01:51:16;;;;;;;13.80;8.10;;;;;;;;;;5097898;28;20504;-80
2023/09/25 01:53:45;;;;;;;13.10;8.00;;;;;;;;;;5068168;28;20460;-79
2023/09/25 01:56:15;;;;;;;13.03;7.70;;;;;;;;;;5064311;28;20459;-79
2023/09/25 01:58:43;;;;;;;8.77;7.83;;;;;;;;;;5077831;28;20451;-79
2023/09/25 02:01:10;;;;;;;9.73;8.10;;;;;;;;;;5077283;28;20468;-79
2023/09/25 02:03:38;;;;;;;11.17;7.70;;;;;;;;;;5077604;28;20448;-79
2023/09/25 02:06:05;;;;;;;11.73;8.17;;;;;;;;;;5075137;28;20941;-79
2023/09/25 02:08:32;;;;;;;11.97;8.20;;;;;;;;;;5097606;28;20482;-79
2023/09/25 02:10:59;;;;;;;9.87;8.40;;;;;;;;;;5083834;28;20480;-79
2023/09/25 02:13:28;;;;;;;13.37;9.37;;;;;;;;;;5060130;28;20456;-79
2023/09/25 02:15:55;;;;;;;10.40;8.07;;;;;;;;;;5076960;28;20451;-79
2023/09/25 02:18:22;;;;;;;15.33;10.50;;;;;;;;;;5060935;28;20828;-80
2023/09/25 02:20:50;;;;;;;10.90;9.23;;;;;;;;;;5072890;28;21008;-79
2023/09/25 02:23:17;;;;;;;11.60;8.70;;;;;;;;;;5097290;28;20453;-79
2023/09/25 02:25:44;;;;;;;11.40;9.33;;;;;;;;;;5097589;28;20454;-79
2023/09/25 02:28:11;;;;;;;12.43;8.50;;;;;;;;;;5082779;28;20454;-78
2023/09/25 02:30:40;;;;;;;13.80;9.37;;;;;;;;;;5077197;28;20476;-79
2023/09/25 02:33:07;;;;;;;15.27;10.43;;;;;;;;;;5063311;28;20518;-79
2023/09/25 02:35:35;;;;;;;11.77;8.97;;;;;;;;;;5075006;28;20838;-79
2023/09/25 02:38:02;;;;;;;14.40;9.47;;;;;;;;;;5076862;28;20997;-79
2023/09/25 02:40:29;;;;;;;12.50;9.47;;;;;;;;;;5076548;28;20478;-79
2023/09/25 02:42:56;;;;;;;11.63;9.33;;;;;;;;;;5077040;28;20513;-79
2023/09/25 02:45:24;;;;;;;18.00;9.13;;;;;;;;;;5076748;28;20447;-79
2023/09/25 02:47:52;;;;;;;16.87;9.50;;;;;;;;;;5077719;28;20464;-79
2023/09/25 02:50:19;;;;;;;23.27;9.40;;;;;;;;;;5092886;28;20494;-79
2023/09/25 02:52:46;;;;;;;12.37;9.30;;;;;;;;;;5085382;28;20451;-79
2023/09/25 02:55:14;;;;;;;17.50;10.27;;;;;;;;;;5084678;28;20447;-79
2023/09/25 02:57:41;;;;;;;16.50;10.40;;;;;;;;;;5078019;28;20459;-79
2023/09/25 03:00:11;;;;;;;14.30;10.57;;;;;;;;;;5081571;28;21008;-80
2023/09/25 03:02:38;;;;;;;19.43;9.57;;;;;;;;;;5086472;28;20443;-80
2023/09/25 03:05:07;;;;;;;12.67;9.30;;;;;;;;;;5081825;28;20474;-79
2023/09/25 03:07:34;;;;;;;13.57;10.03;;;;;;;;;;5075783;28;20495;-79
2023/09/25 03:10:01;;;;;;;12.73;9.87;;;;;;;;;;5080759;28;20833;-79
2023/09/25 03:12:30;;;;;;;26.37;16.83;;;;;;;;;;5079483;28;20460;-79
2023/09/25 03:14:57;;;;;;;19.00;10.60;;;;;;;;;;5089203;28;20451;-79
2023/09/25 03:17:24;;;;;;;14.37;9.13;;;;;;;;;;5079413;28;20455;-79
2023/09/25 03:19:52;;;;;;;13.13;9.83;;;;;;;;;;5055432;28;20827;-80
2023/09/25 03:22:20;;;;;;;11.07;8.77;;;;;;;;;;5056126;28;20506;-79
2023/09/25 03:24:48;;;;;;;10.27;8.83;;;;;;;;;;5079759;28;20458;-79
2023/09/25 03:27:16;;;;;;;12.53;8.90;;;;;;;;;;5081035;28;20942;-79
2023/09/25 03:29:43;;;;;;;13.07;9.70;;;;;;;;;;5065376;28;20542;-79
2023/09/25 03:32:10;;;;;;;13.83;9.47;;;;;;;;;;5056485;28;20448;-79
2023/09/25 03:34:37;;;;;;;10.80;7.70;;;;;;;;;;5057023;28;20483;-79
2023/09/25 03:37:04;;;;;;;8.13;7.30;;;;;;;;;;5056439;28;20456;-79
2023/09/25 03:39:33;;;;;;;10.50;8.13;;;;;;;;;;5092080;28;20933;-79
2023/09/25 03:42:00;;;;;;;8.03;7.07;;;;;;;;;;5096910;28;20454;-79
2023/09/25 03:44:27;;;;;;;8.97;6.30;;;;;;;;;;5095646;28;20445;-79
2023/09/25 03:46:54;;;;;;;8.60;7.43;;;;;;;;;;5081058;28;20465;-79
2023/09/25 03:49:21;;;;;;;10.63;7.80;;;;;;;;;;5096139;28;20487;-79
2023/09/25 03:51:48;;;;;;;8.60;7.73;;;;;;;;;;5093114;28;20484;-79
2023/09/25 03:54:15;;;;;;;7.87;6.27;;;;;;;;;;5061010;28;20483;-79
2023/09/25 03:56:44;;;;;;;8.50;7.07;;;;;;;;;;5094794;28;20447;-79
2023/09/25 03:59:12;;;;;;;13.13;8.13;;;;;;;;;;5081655;28;20456;-79
2023/09/25 04:01:39;;;;;;;10.30;6.70;;;;;;;;;;5094984;28;20473;-79
2023/09/25 04:04:07;;;;;;;8.37;7.30;;;;;;;;;;5090534;28;20466;-79
2023/09/25 04:06:34;;;;;;;9.17;6.70;;;;;;;;;;5076390;28;20505;-79
2023/09/25 04:09:01;;;;;;;10.20;7.20;;;;;;;;;;5078408;28;20488;-79
2023/09/25 04:11:28;;;;;;;7.70;6.83;;;;;;;;;;5080221;28;20921;-80
2023/09/25 04:13:57;;;;;;;8.30;7.40;;;;;;;;;;5083965;28;20884;-79
2023/09/25 04:16:24;;;;;;;11.03;8.00;;;;;;;;;;5091557;28;20450;-79
2023/09/25 04:18:51;;;;;;;9.37;7.93;;;;;;;;;;5090991;28;20457;-79
2023/09/25 04:21:19;;;;;;;10.10;8.43;;;;;;;;;;5084611;28;20476;-79
2023/09/25 04:23:46;;;;;;;13.23;9.60;;;;;;;;;;5084914;28;20470;-79
2023/09/25 04:26:13;;;;;;;12.60;10.73;;;;;;;;;;5072817;28;20963;-79
2023/09/25 04:28:41;;;;;;;11.90;10.30;;;;;;;;;;5082596;28;20436;-79
2023/09/25 04:31:10;;;;;;;16.03;10.90;;;;;;;;;;5093427;28;20996;-78
2023/09/25 04:33:38;;;;;;;15.60;10.30;;;;;;;;;;5060916;28;20959;-79
2023/09/25 04:36:09;;;;;;;14.40;10.47;;;;;;;;;;5073405;28;20455;-79
2023/09/25 04:38:37;;;;;;;15.30;11.53;;;;;;;;;;5069353;28;20461;-79
2023/09/25 04:41:04;;;;;;;13.20;9.47;;;;;;;;;;5081373;28;20467;-79
2023/09/25 04:43:32;;;;;;;16.13;10.00;;;;;;;;;;5079248;28;20822;-79
2023/09/25 04:46:00;;;;;;;11.17;10.07;;;;;;;;;;5059188;28;20453;-80
2023/09/25 04:48:30;;;;;;;11.50;9.77;;;;;;;;;;5085566;28;20462;-79
2023/09/25 04:50:57;;;;;;;11.37;9.33;;;;;;;;;;5094491;28;20498;-79
2023/09/25 04:53:24;;;;;;;13.60;9.00;;;;;;;;;;5087396;28;20451;-79
2023/09/25 04:55:52;;;;;;;9.80;8.77;;;;;;;;;;5083396;28;20989;-79
2023/09/25 04:58:19;;;;;;;12.33;10.00;;;;;;;;;;5091922;28;20448;-80
2023/09/25 05:00:48;;;;;;;12.53;8.83;;;;;;;;;;5076762;28;20472;-79
2023/09/25 05:03:15;;;;;;;14.13;9.97;;;;;;;;;;5066756;28;20464;-78
2023/09/25 05:05:43;;;;;;;13.87;9.17;;;;;;;;;;5087882;28;20458;-78
2023/09/25 05:08:10;;;;;;;11.00;8.23;;;;;;;;;;5082907;28;20452;-78
2023/09/25 05:10:37;;;;;;;9.50;8.50;;;;;;;;;;5076900;28;20480;-78
2023/09/25 05:13:05;;;;;;;11.40;8.70;;;;;;;;;;5082880;28;20511;-78
2023/09/25 05:15:32;;;;;;;14.30;10.30;;;;;;;;;;5095924;28;20929;-78
2023/09/25 05:17:59;;;;;;;13.77;9.80;;;;;;;;;;5076848;28;20456;-78
2023/09/25 05:20:26;;;;;;;14.90;9.90;;;;;;;;;;5076168;28;20472;-78
2023/09/25 05:22:55;;;;;;;15.50;10.00;;;;;;;;;;5077518;28;20456;-79
2023/09/25 05:25:23;;;;;;;16.40;10.30;;;;;;;;;;5085309;28;20460;-78
2023/09/25 05:27:51;;;;;;;12.00;9.80;;;;;;;;;;5072052;28;20482;-78
2023/09/25 05:30:18;;;;;;;10.37;8.20;;;;;;;;;;5072604;28;20510;-78
2023/09/25 05:32:46;;;;;;;11.03;9.30;;;;;;;;;;5061083;28;20497;-78
2023/09/25 05:35:14;;;;;;;13.03;9.47;;;;;;;;;;5070579;28;20479;-78
2023/09/25 05:37:41;;;;;;;10.50;9.13;;;;;;;;;;5069790;28;20458;-78
2023/09/25 05:40:10;;;;;;;12.37;9.87;;;;;;;;;;5085156;28;20476;-79
2023/09/25 05:42:38;;;;;;;12.13;8.50;;;;;;;;;;5076653;28;20497;-78
2023/09/25 05:45:05;;;;;;;13.80;9.80;;;;;;;;;;5088546;28;20527;-78
2023/09/25 05:47:32;;;;;;;11.60;9.47;;;;;;;;;;5088060;28;20443;-78
2023/09/25 05:50:00;;;;;;;10.83;9.77;;;;;;;;;;5088311;28;20490;-78
2023/09/25 05:52:28;;;;;;;10.53;9.43;;;;;;;;;;5088026;28;20447;-78
2023/09/25 05:54:55;;;;;;;14.57;9.70;;;;;;;;;;5071131;28;20818;-79
2023/09/25 05:57:24;;;;;;;10.23;8.10;;;;;;;;;;5056496;28;20500;-79
2023/09/25 05:59:51;;;;;;;9.50;8.60;;;;;;;;;;5059829;28;20452;-79
2023/09/25 06:02:18;;;;;;;11.70;8.63;;;;;;;;;;5084820;28;20468;-79
2023/09/25 06:04:46;;;;;;;12.00;8.70;;;;;;;;;;5063347;28;20556;-79
2023/09/25 06:07:14;;;;;;;9.20;7.90;;;;;;;;;;5074868;28;20876;-79
2023/09/25 06:09:41;;;;;;;8.77;7.90;;;;;;;;;;5086093;28;20487;-78
2023/09/25 06:12:09;;;;;;;9.70;6.33;;;;;;;;;;5091206;28;20502;-79
2023/09/25 06:14:37;;;;;;;5.20;4.70;;;;;;;;;;5085739;28;20459;-79
2023/09/25 06:17:04;;;;;;;3.70;3.30;;;;;;;;;;5088608;28;20447;-79
2023/09/25 06:19:31;;;;;;;3.90;3.20;;;;;;;;;;5087539;28;20562;-79
2023/09/25 06:21:59;;;;;;;3.40;2.83;;;;;;;;;;5076361;28;20484;-78
2023/09/25 06:24:26;;;;;;;4.80;3.27;;;;;;;;;;5076511;28;20946;-79
2023/09/25 06:26:53;;;;;;;2.90;2.57;;;;;;;;;;5056648;28;20456;-79
2023/09/25 06:29:22;;;;;;;3.70;3.30;;;;;;;;;;5073576;28;20464;-79
2023/09/25 06:31:51;;;;;;;7.27;4.67;;;;;;;;;;5088341;28;20835;-79
2023/09/25 06:34:18;;;;;;;4.00;3.60;;;;;;;;;;5095396;28;20816;-80
2023/09/25 06:36:46;;;;;;;5.83;3.30;;;;;;;;;;5087713;28;20446;-80
2023/09/25 06:39:13;;;;;;;3.70;3.40;;;;;;;;;;5095579;28;20442;-80
2023/09/25 06:41:43;;;;;;;5.50;3.53;;;;;;;;;;5095495;28;20455;-80
2023/09/25 06:44:12;;;;;;;5.47;3.90;;;;;;;;;;5095729;28;20454;-80
2023/09/25 06:46:39;;;;;;;3.00;2.70;;;;;;;;;;5095520;28;20925;-81
2023/09/25 06:49:08;;;;;;;4.37;3.20;;;;;;;;;;5095849;28;20455;-82
2023/09/25 06:51:35;;;;;;;3.70;3.27;;;;;;;;;;5093899;28;20491;-81
2023/09/25 06:54:03;;;;;;;4.50;3.53;;;;;;;;;;5075306;28;20440;-81
2023/09/25 06:56:30;;;;;;;4.07;3.63;;;;;;;;;;5075516;28;20451;-80
2023/09/25 06:58:57;;;;;;;5.33;3.07;;;;;;;;;;5075469;28;20832;-81
2023/09/25 07:01:24;;;;;;;3.93;2.97;;;;;;;;;;5074504;28;20574;-81
2023/09/25 07:03:51;;;;;;;3.97;2.97;;;;;;;;;;5063444;28;20469;-80
2023/09/25 07:06:20;;;;;;;4.13;2.60;;;;;;;;;;5056765;28;20455;-81
2023/09/25 07:08:47;;;;;;;2.83;2.63;;;;;;;;;;5056147;28;20931;-80
2023/09/25 07:11:18;;;;;;;5.37;2.83;;;;;;;;;;5055639;28;20488;-80
2023/09/25 07:13:45;;;;;;;4.13;3.40;;;;;;;;;;5055677;28;20447;-80
2023/09/25 07:16:12;;;;;;;5.17;2.97;;;;;;;;;;5055368;28;20445;-81
2023/09/25 07:18:39;;;;;;;4.30;3.60;;;;;;;;;;5067736;28;20471;-81
2023/09/25 07:21:07;;;;;;;4.30;3.40;;;;;;;;;;5080912;28;20575;-81
2023/09/25 07:23:35;;;;;;;4.80;3.13;;;;;;;;;;5075958;28;20466;-81
2023/09/25 07:26:03;;;;;;;3.37;2.67;;;;;;;;;;5089422;28;20504;-81
2023/09/25 07:28:31;;;;;;;5.47;4.03;;;;;;;;;;5093951;28;20800;-79
2023/09/25 07:31:00;;;;;;;5.00;3.27;;;;;;;;;;5074697;28;20981;-81
2023/09/25 07:33:28;;;;;;;4.27;3.80;;;;;;;;;;5075017;28;20448;-80
2023/09/25 07:35:55;;;;;;;4.60;3.70;;;;;;;;;;5074640;28;20459;-80
2023/09/25 07:38:22;;;;;;;5.20;4.07;;;;;;;;;;5074670;28;20467;-80
2023/09/25 07:40:50;;;;;;;4.03;3.63;;;;;;;;;;5075185;28;20463;-80
2023/09/25 07:43:19;;;;;;;3.83;3.43;;;;;;;;;;5074257;28;20447;-80
2023/09/25 07:45:48;;;;;;;3.40;2.83;;;;;;;;;;5078775;28;20508;-81
2023/09/25 07:48:16;;;;;;;12.23;4.00;;;;;;;;;;5086547;28;20466;-81
2023/09/25 07:50:43;;;;;;;4.43;4.03;;;;;;;;;;5083894;28;20498;-81
2023/09/25 07:53:10;;;;;;;4.67;3.80;;;;;;;;;;5066177;28;20462;-82
2023/09/25 07:55:38;;;;;;;6.70;3.60;;;;;;;;;;5064371;28;20461;-82
2023/09/25 07:58:07;;;;;;;6.67;4.70;;;;;;;;;;5068637;28;20455;-81
2023/09/25 08:00:37;;;;;;;5.57;3.50;;;;;;;;;;5066544;28;20475;-82
2023/09/25 08:03:05;;;;;;;6.17;4.97;;;;;;;;;;5089813;28;20537;-82
2023/09/25 08:05:32;;;;;;;6.30;4.70;;;;;;;;;;5084560;28;20506;-82
2023/09/25 08:07:59;;;;;;;6.33;4.47;;;;;;;;;;5054741;28;20528;-81
2023/09/25 08:10:26;;;;;;;7.13;4.20;;;;;;;;;;5079685;28;20513;-82
2023/09/25 08:12:54;;;;;;;5.13;4.60;;;;;;;;;;5087264;28;20447;-82
2023/09/25 08:15:23;;;;;;;7.40;4.40;;;;;;;;;;5086469;28;20476;-82
2023/09/25 08:17:50;;;;;;;8.20;4.43;;;;;;;;;;5082738;28;20448;-82
2023/09/25 08:20:20;;;;;;;4.80;4.00;;;;;;;;;;5082386;28;20932;-80
2023/09/25 08:22:48;;;;;;;6.20;4.47;;;;;;;;;;5095206;28;20476;-82
2023/09/25 08:25:16;;;;;;;4.57;4.00;;;;;;;;;;5079317;28;20885;-81
2023/09/25 08:27:43;;;;;;;5.57;3.40;;;;;;;;;;5063711;28;20448;-81
2023/09/25 08:30:10;;;;;;;6.43;4.03;;;;;;;;;;5054824;28;20476;-81
2023/09/25 08:32:39;;;;;;;5.53;4.40;;;;;;;;;;5066274;28;20462;-81
2023/09/25 08:35:09;;;;;;;4.57;4.10;;;;;;;;;;5094965;28;20458;-82
2023/09/25 08:37:36;;;;;;;4.07;3.77;;;;;;;;;;5093687;28;20481;-81
2023/09/25 08:40:04;;;;;;;6.27;4.30;;;;;;;;;;5088712;28;20477;-81
2023/09/25 08:42:31;;;;;;;7.63;4.47;;;;;;;;;;5077741;28;20448;-82
2023/09/25 08:45:01;;;;;;;4.27;3.87;;;;;;;;;;5070495;28;20484;-82
2023/09/25 08:47:29;;;;;;;5.80;5.20;;;;;;;;;;5081383;28;20454;-82
2023/09/25 08:49:57;;;;;;;4.80;4.30;;;;;;;;;;5082978;28;20528;-81
2023/09/25 08:52:25;;;;;;;4.70;4.17;;;;;;;;;;5084896;28;20519;-81
2023/09/25 08:54:53;;;;;;;5.10;4.57;;;;;;;;;;5088570;28;20450;-81
2023/09/25 08:57:20;;;;;;;5.47;3.70;;;;;;;;;;5100319;28;20450;-82
2023/09/25 08:59:50;;;;;;;4.27;3.87;;;;;;;;;;5093235;28;20800;-76
2023/09/25 09:02:17;;;;;;;4.47;4.10;;;;;;;;;;5076171;28;20895;-75
2023/09/25 09:04:45;;;;;;;5.80;4.27;;;;;;;;;;5095117;28;20447;-77
2023/09/25 09:07:14;;;;;;;5.90;4.10;;;;;;;;;;5095718;28;20447;-76
2023/09/25 09:09:43;;;;;;;6.97;5.07;;;;;;;;;;5084598;28;20475;-76
2023/09/25 09:12:10;;;;;;;5.37;4.50;;;;;;;;;;5075324;28;20498;-75
2023/09/25 09:14:39;;;;;;;4.80;4.40;;;;;;;;;;5075466;28;20432;-77
2023/09/25 09:17:06;;;;;;;5.13;4.63;;;;;;;;;;5075254;28;20831;-77
2023/09/25 09:19:36;;;;;;;4.90;4.50;;;;;;;;;;5075304;28;20934;-76
2023/09/25 09:22:05;;;;;;;6.33;4.87;;;;;;;;;;5075205;28;20938;-76
2023/09/25 09:24:35;;;;;;;5.53;4.50;;;;;;;;;;5084306;28;20451;-77
2023/09/25 09:27:07;;;;;;;6.80;4.30;;;;;;;;;;5095388;28;20435;-76
2023/09/25 09:29:35;;;;;;;5.03;4.47;;;;;;;;;;5095108;28;20475;-76
2023/09/25 09:32:03;;;;;;;5.57;5.07;;;;;;;;;;5095274;28;20988;-76
2023/09/25 09:34:30;;;;;;;9.43;4.90;;;;;;;;;;5095059;28;21022;-76
2023/09/25 09:36:57;;;;;;;6.70;5.90;;;;;;;;;;5094926;28;20450;-76
2023/09/25 09:39:25;;;;;;;5.83;5.33;;;;;;;;;;5086736;28;20474;-76
2023/09/25 09:41:55;;;;;;;6.90;4.60;;;;;;;;;;5078314;28;20536;-76
2023/09/25 09:44:22;;;;;;;5.63;4.53;;;;;;;;;;5095224;28;20937;-76
2023/09/25 09:46:51;;;;;;;5.93;4.70;;;;;;;;;;5094677;28;20504;-76
2023/09/25 09:49:20;;;;;;;8.13;5.13;;;;;;;;;;5094886;28;20941;-76
2023/09/25 09:51:49;;;;;;;4.43;3.90;;;;;;;;;;5094376;28;20486;-76
2023/09/25 09:54:18;;;;;;;7.20;5.30;;;;;;;;;;5094532;28;20454;-76
2023/09/25 09:56:47;;;;;;;6.53;5.03;;;;;;;;;;5075184;28;20455;-76
2023/09/25 09:59:16;;;;;;;7.47;5.10;;;;;;;;;;5082904;28;20539;-76
2023/09/25 10:01:44;;;;;;;9.13;4.43;;;;;;;;;;5093703;28;20466;-76
2023/09/25 10:04:12;;;;;;;4.93;4.07;;;;;;;;;;5094440;28;20458;-76
2023/09/25 10:06:44;;;;;;;5.50;4.23;;;;;;;;;;5094397;28;20477;-77
2023/09/25 10:09:13;;;;;;;4.80;3.70;;;;;;;;;;5079612;28;20474;-76
2023/09/25 10:11:42;;;;;;;4.30;3.87;;;;;;;;;;5073992;28;20497;-76
2023/09/25 10:14:10;;;;;;;9.07;4.70;;;;;;;;;;5068279;28;20460;-76
2023/09/25 10:16:58;;;;;;;6.80;4.30;;;;;;;;;;5055825;28;20455;-76
2023/09/25 10:19:34;;;;;;;6.40;4.67;;;;;;;;;;5069381;28;20878;-76
2023/09/25 10:22:11;;;;;;;6.77;3.77;;;;;;;;;;5078838;28;20457;-76
2023/09/25 10:24:38;;;;;;;5.03;3.93;;;;;;;;;;5094287;28;20915;-76
2023/09/25 10:27:05;;;;;;;3.50;3.20;;;;;;;;;;5080147;28;20456;-77
2023/09/25 10:29:32;;;;;;;4.57;4.17;;;;;;;;;;5082778;28;20451;-77
2023/09/25 10:32:01;;;;;;;4.30;3.83;;;;;;;;;;5085200;28;20516;-76
2023/09/25 10:34:30;;;;;;;5.90;4.10;;;;;;;;;;5084454;28;20549;-77
2023/09/25 10:37:00;;;;;;;9.30;3.57;;;;;;;;;;5081841;28;20455;-76
2023/09/25 10:39:27;;;;;;;5.00;3.90;;;;;;;;;;5081575;28;20433;-76
2023/09/25 10:41:57;;;;;;;3.63;3.30;;;;;;;;;;5077448;28;20466;-77
2023/09/25 10:44:26;;;;;;;3.80;3.07;;;;;;;;;;5068347;28;20456;-77
2023/09/25 10:46:53;;;;;;;4.37;3.37;;;;;;;;;;5069342;28;20520;-77
2023/09/25 10:49:20;;;;;;;3.10;2.80;;;;;;;;;;5068852;28;20452;-77
2023/09/25 10:51:49;;;;;;;3.30;2.77;;;;;;;;;;5084704;28;20499;-76
2023/09/25 10:54:16;;;;;;;4.50;3.50;;;;;;;;;;5084951;28;20465;-77
2023/09/25 10:56:43;;;;;;;5.83;2.83;;;;;;;;;;5068284;28;20451;-77
2023/09/25 10:59:11;;;;;;;5.13;3.07;;;;;;;;;;5084626;28;20446;-76
2023/09/25 11:01:38;;;;;;;4.23;3.70;;;;;;;;;;5076454;28;20491;-76
2023/09/25 11:04:07;;;;;;;5.27;2.83;;;;;;;;;;5070731;28;20459;-76
2023/09/25 11:06:34;;;;;;;2.93;2.60;;;;;;;;;;5080967;28;20456;-76
2023/09/25 11:09:11;;;;;;;3.23;2.93;;;;;;;;;;5081018;28;20826;-76
2023/09/25 11:11:40;;;;;;;6.43;3.27;;;;;;;;;;5074164;28;20917;-76
2023/09/25 11:14:07;;;;;;;3.63;3.07;;;;;;;;;;5078336;28;20505;-77
2023/09/25 11:16:36;;;;;;;5.00;3.00;;;;;;;;;;5071912;28;20467;-76
2023/09/25 11:19:11;;;;;;;7.43;3.33;;;;;;;;;;5074835;28;20552;-76
2023/09/25 11:21:39;;;;;;;6.33;2.93;;;;;;;;;;5070400;28;20559;-76
2023/09/25 11:24:09;;;;;;;6.00;3.13;;;;;;;;;;5077900;28;20839;-77
2023/09/25 11:26:37;;;;;;;5.47;4.10;;;;;;;;;;5057817;28;20468;-77
2023/09/25 11:29:07;;;;;;;7.90;3.90;;;;;;;;;;5080550;28;20452;-78
2023/09/25 11:31:34;;;;;;;7.57;4.00;;;;;;;;;;5064605;28;20979;-78
2023/09/25 11:34:02;;;;;;;5.00;3.97;;;;;;;;;;5067436;28;20457;-77
2023/09/25 11:36:30;;;;;;;7.00;3.10;;;;;;;;;;5070546;28;20494;-78
2023/09/25 11:38:57;;;;;;;9.90;4.10;;;;;;;;;;5084567;28;20532;-76
2023/09/25 11:41:26;;;;;;;4.90;3.87;;;;;;;;;;5074543;28;20554;-76
2023/09/25 11:43:53;;;;;;;4.53;4.10;;;;;;;;;;5061261;28;20445;-76
2023/09/25 11:46:20;;;;;;;7.27;4.43;;;;;;;;;;5062212;28;20445;-76
2023/09/25 11:48:47;;;;;;;6.63;3.60;;;;;;;;;;5065198;28;20865;-76
2023/09/25 11:51:15;;;;;;;6.60;4.10;;;;;;;;;;5064782;28;20463;-76
2023/09/25 11:53:42;;;;;;;5.90;4.70;;;;;;;;;;5082616;28;20452;-76
2023/09/25 11:56:09;;;;;;;10.40;4.67;;;;;;;;;;5075783;28;20452;-77
2023/09/25 11:58:38;;;;;;;4.30;3.90;;;;;;;;;;5071715;28;20471;-76
2023/09/25 12:01:05;;;;;;;5.30;4.37;;;;;;;;;;5062838;28;20492;-76
2023/09/25 12:03:38;;;;;;;4.20;3.80;;;;;;;;;;5077097;28;20450;-76
2023/09/25 12:06:06;;;;;;;4.80;3.90;;;;;;;;;;5081643;28;20455;-76
2023/09/25 12:08:33;;;;;;;8.43;4.50;;;;;;;;;;5080518;28;20463;-76
2023/09/25 12:11:00;;;;;;;6.10;4.47;;;;;;;;;;5074834;28;20869;-77
2023/09/25 12:13:28;;;;;;;5.10;4.60;;;;;;;;;;5072877;28;20952;-76
2023/09/25 12:15:57;;;;;;;4.33;3.70;;;;;;;;;;5078185;28;20451;-77
2023/09/25 12:18:24;;;;;;;8.93;4.20;;;;;;;;;;5070264;28;20456;-77
2023/09/25 12:20:51;;;;;;;5.73;3.93;;;;;;;;;;5068227;28;21035;-78
2023/09/25 12:23:18;;;;;;;5.83;4.07;;;;;;;;;;5058765;28;20452;-77
2023/09/25 12:25:46;;;;;;;4.60;4.20;;;;;;;;;;5079976;28;20986;-77
2023/09/25 12:28:13;;;;;;;6.23;4.53;;;;;;;;;;5063239;28;20497;-77
2023/09/25 12:30:40;;;;;;;5.47;4.97;;;;;;;;;;5079637;28;20976;-77
2023/09/25 12:33:09;;;;;;;5.07;4.60;;;;;;;;;;5075597;28;20497;-76
2023/09/25 12:35:40;;;;;;;4.33;4.03;;;;;;;;;;5085665;28;20878;-77
2023/09/25 12:38:09;;;;;;;4.53;3.73;;;;;;;;;;5078091;28;20460;-77
2023/09/25 12:40:36;;;;;;;4.40;4.00;;;;;;;;;;5066318;28;20475;-76
2023/09/25 12:43:04;;;;;;;8.53;4.67;;;;;;;;;;5081850;28;20526;-77
2023/09/25 12:45:31;;;;;;;4.63;4.23;;;;;;;;;;5084577;28;20487;-76
2023/09/25 12:47:58;;;;;;;8.93;4.13;;;;;;;;;;5082511;28;20512;-76
2023/09/25 12:50:27;;;;;;;5.80;4.20;;;;;;;;;;5075080;28;20823;-76
2023/09/25 12:52:54;;;;;;;4.70;4.23;;;;;;;;;;5063419;28;20492;-76
2023/09/25 12:55:21;;;;;;;7.23;5.00;;;;;;;;;;5078833;28;20933;-76
2023/09/25 12:57:50;;;;;;;4.93;4.50;;;;;;;;;;5083477;28;20462;-76
2023/09/25 13:00:19;;;;;;;7.80;5.30;;;;;;;;;;5083176;28;21007;-76
2023/09/25 13:02:46;;;;;;;7.30;6.13;;;;;;;;;;5072123;28;20452;-76
2023/09/25 13:05:13;;;;;;;6.63;5.30;;;;;;;;;;5076825;28;20446;-77
2023/09/25 13:07:42;;;;;;;6.87;5.30;;;;;;;;;;5082687;28;20458;-76
2023/09/25 13:10:10;;;;;;;8.50;5.93;;;;;;;;;;5060541;28;20488;-76
2023/09/25 13:12:39;;;;;;;12.80;4.73;;;;;;;;;;5074639;28;20499;-76
2023/09/25 13:15:07;;;;;;;9.27;5.47;;;;;;;;;;5074818;28;20870;-76
2023/09/25 13:17:34;;;;;;;5.87;4.63;;;;;;;;;;5073733;28;20460;-77
2023/09/25 13:20:07;;;;;;;6.80;4.63;;;;;;;;;;5054390;28;20495;-76
2023/09/25 13:22:34;;;;;;;8.67;5.97;;;;;;;;;;5064354;28;20849;-77
2023/09/25 13:25:02;;;;;;;5.80;4.60;;;;;;;;;;5082925;28;20458;-76
2023/09/25 13:27:30;;;;;;;7.43;4.90;;;;;;;;;;5083562;28;20538;-76
2023/09/25 13:29:57;;;;;;;6.60;5.87;;;;;;;;;;5073327;28;20494;-77
2023/09/25 13:32:24;;;;;;;7.90;5.43;;;;;;;;;;5074703;28;20492;-77
2023/09/25 13:34:51;;;;;;;6.03;5.30;;;;;;;;;;5066223;28;20459;-76
2023/09/25 13:37:18;;;;;;;5.60;4.33;;;;;;;;;;5082713;28;20451;-76
2023/09/25 13:39:45;;;;;;;7.20;5.50;;;;;;;;;;5069106;28;20853;-76
2023/09/25 13:42:14;;;;;;;5.23;4.73;;;;;;;;;;5078822;28;20444;-76
2023/09/25 13:44:41;;;;;;;9.90;5.60;;;;;;;;;;5065823;28;20447;-76
2023/09/25 13:47:08;;;;;;;6.27;5.67;;;;;;;;;;5082619;28;20448;-76
2023/09/25 13:49:35;;;;;;;9.20;6.03;;;;;;;;;;5080924;28;20956;-76
2023/09/25 13:52:02;;;;;;;8.40;6.20;;;;;;;;;;5059388;28;20499;-77
2023/09/25 13:54:29;;;;;;;8.03;4.70;;;;;;;;;;5081805;28;20458;-77
2023/09/25 13:56:58;;;;;;;9.30;5.23;;;;;;;;;;5071161;28;20789;-76
2023/09/25 13:59:26;;;;;;;8.83;5.77;;;;;;;;;;5077418;28;20500;-76
2023/09/25 14:01:53;;;;;;;6.43;4.60;;;;;;;;;;5070279;28;20475;-77
2023/09/25 14:04:20;;;;;;;6.27;4.77;;;;;;;;;;5077474;28;20447;-77
2023/09/25 14:06:48;;;;;;;10.70;5.50;;;;;;;;;;5065949;28;20456;-77
2023/09/25 14:09:15;;;;;;;9.67;6.00;;;;;;;;;;5073723;28;20455;-76
2023/09/25 14:11:42;;;;;;;8.63;5.50;;;;;;;;;;5082186;28;20471;-77
2023/09/25 14:14:09;;;;;;;7.17;5.57;;;;;;;;;;5082151;28;20825;-77
2023/09/25 14:16:38;;;;;;;8.20;6.07;;;;;;;;;;5072130;28;20518;-77
2023/09/25 14:19:05;;;;;;;7.43;5.23;;;;;;;;;;5053413;28;20460;-77
2023/09/25 14:21:33;;;;;;;6.73;4.63;;;;;;;;;;5079369;28;20989;-76
2023/09/25 14:24:00;;;;;;;10.47;5.40;;;;;;;;;;5077183;28;20862;-76
2023/09/25 14:26:28;;;;;;;6.30;5.70;;;;;;;;;;5078635;28;20453;-77
2023/09/25 14:28:55;;;;;;;6.67;5.73;;;;;;;;;;5057640;28;20452;-77
2023/09/25 14:31:22;;;;;;;6.70;5.60;;;;;;;;;;5081727;28;20902;-76
2023/09/25 14:33:51;;;;;;;7.90;5.17;;;;;;;;;;5078631;28;20672;-77
2023/09/25 14:36:18;;;;;;;6.73;5.70;;;;;;;;;;5076273;28;20464;-76
2023/09/25 14:38:45;;;;;;;7.60;5.37;;;;;;;;;;5068491;28;20946;-77
2023/09/25 14:41:12;;;;;;;4.97;4.47;;;;;;;;;;5071987;28;20479;-77